Flight Track Log - Related Links

Times and Time Zones

All times are in EST time to prevent confusion due to time zone crossing. See the SWA2279 flight status page for this flight to view local times or setup timezone preferences in your user account.

Time Position Orientation Groundspeed Altitude Reporting Facility
EST Latitude Longitude Course Direction KTS MPH feet Rate Location/Type
Sat 07:06:09 PM 41.8133 -87.7594 136° Southeast 164 189 2,000  Level Chicago Center
Sat 07:07:10 PM 41.7778 -87.7128 136° Southeast 230 265 5,100 3,073 Climbing Chicago Center
Sat 07:08:12 PM 41.7139 -87.7406 198° South 240 276 8,300 2,927 Climbing Chicago Center
Sat 07:09:13 PM 41.6539 -87.7681 199° South 247 284 11,100 2,311 Climbing Chicago Center
Sat 07:10:14 PM 41.5642 -87.7672 180° South 329 379 13,000 2,390 Climbing Chicago Center
Sat 07:11:16 PM 41.4689 -87.7467 171° South 347 399 16,000 2,488 Climbing Chicago Center
Sat 07:12:17 PM 41.3708 -87.7267 171° South 359 413 18,100 1,967 Climbing Chicago Center
Sat 07:13:18 PM 41.2714 -87.7058 171° South 377 434 20,000 1,967 Climbing Chicago Center
Sat 07:14:19 PM 41.1581 -87.6808 171° South 402 463 22,100 2,049 Climbing Chicago Center
Sat 07:15:21 PM 41.0419 -87.6558 171° South 417 480 24,200 2,049 Climbing Chicago Center
Sat 07:16:22 PM 40.8994 -87.6247 171° South 430 495 26,300 1,721 Climbing Chicago Center
Sat 07:17:23 PM 40.7764 -87.5986 171° South 444 511 27,700 1,377 Climbing Chicago Center
Sat 07:18:24 PM 40.6511 -87.5719 171° South 454 522 29,100 1,171 Climbing Chicago Center
Sat 07:19:26 PM 40.5211 -87.5439 171° South 470 541 30,100 1,220 Climbing Chicago Center
Sat 07:20:27 PM 40.3881 -87.5156 171° South 480 552 31,600 1,426 Climbing Chicago Center
Sat 07:21:28 PM 40.2572 -87.4881 171° South 479 551 33,000 689 Climbing Chicago Center
Sat 07:22:29 PM 40.1206 -87.4608 171° South 474 545 33,000  Level Chicago Center
Sat 07:23:02 PM 40.0406 -87.4453 172° South 474 545 33,000  Level Indianapolis Center
Sat 07:24:03 PM 39.9114 -87.4200 171° South 474 545 33,000 344 Level Indianapolis Center
Sat 07:25:04 PM 39.7814 -87.3936 171° South 473 544 33,700 934 Climbing Indianapolis Center
Sat 07:26:05 PM 39.6533 -87.3672 171° South 472 543 34,900 1,033 Climbing Indianapolis Center
Sat 07:27:06 PM 39.5253 -87.3411 171° South 472 543 35,800 732 Climbing Indianapolis Center
Sat 07:28:08 PM 39.3953 -87.3147 171° South 472 543 36,400 585 Climbing Indianapolis Center
Sat 07:29:09 PM 39.2614 -87.2875 171° South 480 552 37,000 295 Climbing Indianapolis Center
Sat 07:30:10 PM 39.1281 -87.2592 171° South 483 556 37,000  Level Indianapolis Center
Sat 07:31:11 PM 38.9922 -87.2331 172° South 483 556 37,000  Level Indianapolis Center
Sat 07:32:12 PM 38.8592 -87.2075 171° South 483 556 37,000  Level Indianapolis Center
Sat 07:33:13 PM 38.7269 -87.1808 171° South 481 554 37,000  Level Indianapolis Center
Sat 07:34:14 PM 38.5953 -87.1544 171° South 481 554 37,000  Level Indianapolis Center
Sat 07:35:15 PM 38.4372 -87.1233 171° South 480 552 37,000  Level Indianapolis Center
Sat 07:36:16 PM 38.3150 -87.0992 171° South 480 552 37,000  Level Indianapolis Center
Sat 07:37:17 PM 38.1831 -87.0739 171° South 480 552 37,000  Level Indianapolis Center
Sat 07:38:18 PM 38.0536 -87.0489 171° South 478 550 37,000  Level Indianapolis Center
Sat 07:39:20 PM 37.9236 -87.0239 171° South 475 547 37,000  Level Indianapolis Center
Sat 07:40:21 PM 37.7936 -86.9983 171° South 474 545 37,000  Level Indianapolis Center
Sat 07:41:22 PM 37.6650 -86.9731 171° South 471 542 37,000  Level Indianapolis Center
Sat 07:42:23 PM 37.5136 -86.9439 171° South 469 540 37,000  Level Indianapolis Center
Sat 07:43:24 PM 37.3842 -86.9192 171° South 468 539 37,000  Level Indianapolis Center
Sat 07:44:25 PM 37.2511 -86.8942 171° South 471 542 37,000  Level Indianapolis Center
Sat 07:45:26 PM 37.1178 -86.8625 169° South 476 548 37,000  Level Indianapolis Center
Sat 07:46:27 PM 36.9853 -86.8047 161° South 492 566 37,000  Level Indianapolis Center
Sat 07:47:19 PM 36.8747 -86.7589 162° South 496 571 37,000  Level Memphis Center
Sat 07:48:20 PM 36.7400 -86.7033 162° South 498 573 37,000  Level Memphis Center
Sat 07:49:21 PM 36.6064 -86.6489 162° South 498 573 37,000  Level Memphis Center
Sat 07:50:23 PM 36.4711 -86.5931 162° South 498 573 37,000  Level Memphis Center
Sat 07:51:24 PM 36.3342 -86.5375 162° South 500 575 37,000  Level Memphis Center
Sat 07:52:25 PM 36.1989 -86.4847 163° South 501 577 37,000  Level Memphis Center
Sat 07:53:26 PM 36.0647 -86.4328 163° South 500 575 37,000  Level Memphis Center
Sat 07:54:28 PM 35.9325 -86.3792 162° South 498 573 37,000  Level Memphis Center
Sat 07:55:29 PM 35.8006 -86.3275 162° South 496 571 37,000  Level Memphis Center
Sat 07:56:30 PM 35.6697 -86.2747 162° South 493 567 37,000  Level Memphis Center
Sat 07:57:31 PM 35.5389 -86.2236 162° South 490 564 37,000  Level Memphis Center
Sat 07:58:32 PM 35.3994 -86.1692 162° South 483 556 37,000  Level Memphis Center
Sat 07:59:34 PM 35.2714 -86.1186 162° South 483 556 37,000  Level Memphis Center
Sat 08:00:35 PM 35.1431 -86.0686 162° South 483 556 37,000  Level Memphis Center
Sat 08:01:36 PM 35.0144 -86.0172 162° South 484 557 37,000  Level Memphis Center
Sat 08:02:37 PM 34.8856 -85.9672 162° South 484 557 37,000  Level Memphis Center
Sat 08:03:46 PM 34.7297 -85.9039 162° South 477 549 37,000  Level Atlanta Center
Sat 08:04:46 PM 34.6011 -85.8531 162° South 482 555 37,000  Level Atlanta Center
Sat 08:05:46 PM 34.4703 -85.8075 164° South 482 555 37,000  Level Atlanta Center
Sat 08:06:46 PM 34.3417 -85.7597 163° South 482 555 37,000  Level Atlanta Center
Sat 08:07:46 PM 34.2150 -85.7119 163° South 482 555 37,000  Level Atlanta Center
Sat 08:08:46 PM 34.0819 -85.6617 163° South 482 555 37,000  Level Atlanta Center
Sat 08:09:46 PM 33.9553 -85.6142 163° South 482 555 37,000  Level Atlanta Center
Sat 08:10:46 PM 33.8286 -85.5642 162° South 482 555 37,000  Level Atlanta Center
Sat 08:11:46 PM 33.6978 -85.5144 162° South 482 555 37,000  Level Atlanta Center
Sat 08:12:46 PM 33.5731 -85.4700 163° South 482 555 37,000  Level Atlanta Center
Sat 08:13:46 PM 33.4422 -85.4206 162° South 482 555 37,000  Level Atlanta Center
Sat 08:14:46 PM 33.3153 -85.3761 164° South 477 549 37,000  Level Atlanta Center
Sat 08:15:46 PM 33.1864 -85.3294 163° South 483 556 37,000  Level Atlanta Center
Sat 08:16:46 PM 33.0678 -85.2856 163° South 483 556 37,000  Level Atlanta Center
Sat 08:17:46 PM 32.9328 -85.2244 159° South 483 556 37,000  Level Atlanta Center
Sat 08:18:46 PM 32.7997 -85.1756 163° South 483 556 37,000  Level Atlanta Center
Sat 08:19:46 PM 32.6769 -85.1319 163° South 475 547 37,000  Level Atlanta Center
Sat 08:20:46 PM 32.5436 -85.0811 162° South 480 552 37,000  Level Atlanta Center
Sat 08:21:46 PM 32.4189 -85.0378 164° South 480 552 37,000  Level Atlanta Center
Sat 08:22:46 PM 32.2897 -84.9922 163° South 480 552 37,000  Level Atlanta Center
Sat 08:23:46 PM 32.1628 -84.9492 164° South 480 552 37,000  Level Atlanta Center
Sat 08:25:48 PM 31.9008 -84.8503 162° South 491 565 37,000  Level Jacksonville Center
Sat 08:26:48 PM 31.7867 -84.8111 164° South 484 557 37,000  Level Jacksonville Center
Sat 08:27:48 PM 31.6600 -84.7669 163° South 484 557 37,000  Level Jacksonville Center
Sat 08:28:48 PM 31.5311 -84.7206 163° South 474 545 37,000  Level Jacksonville Center
Sat 08:29:48 PM 31.4067 -84.6719 162° South 474 545 37,000  Level Jacksonville Center
Sat 08:30:48 PM 31.2822 -84.6064 156° South 479 551 37,000  Level Jacksonville Center
Sat 08:31:48 PM 31.1600 -84.5433 156° South 490 564 37,000  Level Jacksonville Center
Sat 08:32:48 PM 31.0333 -84.4806 157° South 495 570 37,000  Level Jacksonville Center
Sat 08:33:48 PM 30.9089 -84.4156 156° South 495 570 37,000  Level Jacksonville Center
Sat 08:34:48 PM 30.7844 -84.3508 156° South 495 570 37,000  Level Jacksonville Center
Sat 08:35:48 PM 30.6578 -84.2883 157° South 495 570 37,000  Level Jacksonville Center
Sat 08:36:48 PM 30.5206 -84.2189 156° South 495 570 37,000 -50 Level Jacksonville Center
Sat 08:37:48 PM 30.4106 -84.1644 157° South 495 570 36,900  Descending Jacksonville Center
Sat 08:38:48 PM 30.2878 -84.1025 156° South 490 564 37,000 50 Climbing Jacksonville Center
Sat 08:39:48 PM 30.1611 -84.0386 156° South 495 570 37,000  Level Jacksonville Center
Sat 08:40:48 PM 30.0344 -83.9747 156° South 495 570 37,000  Level Jacksonville Center
Sat 08:41:48 PM 29.9075 -83.9108 156° South 495 570 37,000  Level Jacksonville Center
Sat 08:42:48 PM 29.7806 -83.8497 157° South 495 570 37,000  Level Jacksonville Center
Sat 08:43:48 PM 29.6558 -83.7864 156° South 495 570 37,000  Level Jacksonville Center
Sat 08:44:48 PM 29.5289 -83.7256 157° South 495 570 37,000  Level Jacksonville Center
Sat 08:45:48 PM 29.4019 -83.6650 157° South 495 570 37,000  Level Jacksonville Center
Sat 08:46:48 PM 29.2750 -83.6019 157° South 495 570 37,000  Level Jacksonville Center
Sat 08:47:48 PM 29.1481 -83.5392 157° South 495 570 37,000  Level Jacksonville Center
Sat 08:48:48 PM 29.0231 -83.4792 157° South 495 570 37,000  Level Jacksonville Center
Sat 08:49:48 PM 28.8981 -83.4167 156° South 495 570 37,000  Level Jacksonville Center
Sat 08:50:48 PM 28.7586 -83.3472 156° South 501 577 37,000 -200 Level Jacksonville Center
Sat 08:51:48 PM 28.6336 -83.2853 156° South 494 568 36,600 -1,553 Descending Jacksonville Center
Sat 08:54:05 PM 28.3706 -83.1644 158° South 468 539 31,900 -2,041 Descending Miami Center
Sat 08:55:05 PM 28.2522 -83.1058 156° South 468 539 29,900 -2,000 Descending Miami Center
Sat 08:56:05 PM 28.1339 -83.0475 157° South 461 531 27,900 -1,450 Descending Miami Center
Sat 08:57:05 PM 28.0236 -82.9944 157° South 456 525 27,000 -450 Descending Miami Center
Sat 08:58:05 PM 27.9067 -82.9436 159° South 451 519 27,000  Level Miami Center
Sat 08:59:05 PM 27.7869 -82.8692 151° Southeast 461 531 27,000  Level Miami Center
Sat 09:00:05 PM 27.6811 -82.8028 151° Southeast 461 531 27,000 -700 Level Miami Center
Sat 09:01:05 PM 27.5669 -82.7358 153° Southeast 461 531 25,600 -1,900 Descending Miami Center
Sat 09:02:05 PM 27.4469 -82.6644 152° Southeast 452 520 23,200 -2,250 Descending Miami Center
Sat 09:03:05 PM 27.3408 -82.6028 153° Southeast 443 510 21,100 -1,950 Descending Miami Center
Sat 09:04:05 PM 27.2450 -82.5467 152° Southeast 432 497 19,300 -2,000 Descending Miami Center
Sat 09:05:05 PM 27.1328 -82.4831 153° Southeast 420 483 17,100 -2,200 Descending Miami Center
Sat 09:06:05 PM 27.0328 -82.4222 152° Southeast 420 483 14,900 -2,050 Descending Miami Center
Sat 09:07:05 PM 26.9431 -82.3689 152° Southeast 403 464 13,000 -1,850 Descending Miami Center
Sat 09:08:05 PM 26.8489 -82.3156 153° Southeast 397 457 11,200 -1,339 Descending Miami Center
Sat 09:09:06 PM 26.7636 -82.2583 149° Southeast 374 430 10,300 -942 Descending Miami Center
Sat 09:10:06 PM 26.6906 -82.2014 145° Southeast 337 388 9,300 -1,361 Descending Miami Center
Sat 09:11:05 PM 26.6217 -82.1450 144° Southeast 319 367 7,600 -1,500 Descending Miami Center
Sat 09:12:06 PM 26.5544 -82.0931 145° Southeast 302 348 6,300 -1,400 Descending Miami Center
Sat 09:13:05 PM 26.4833 -82.0436 148° Southeast 282 325 4,800 -958 Descending Miami Center
Sat 09:14:05 PM 26.4189 -82.0339 172° South 245 282 4,400 -450 Descending Miami Center
Sat 09:15:05 PM 26.4019 -81.9844 111° Southeast 166 191 3,900 -700 Descending Miami Center
Sat 09:16:05 PM 26.4181 -81.9364 69° East 149 171 3,000 -900 Descending Miami Center
Sat 09:18:00 PM 26.5333 -81.7500 50° Northeast  Level FlightAware Approximate
Sat 09:25:00 PM 26.5362 -81.7552 50° Northeast  Level Estimated
Sat 09:26:00 PM 26.5333 -81.7500 50° Northeast  Level FlightAware Approximate
Sat 09:27:00 PM 26.5362 -81.7552 50° Northeast  Level Estimated
Sat 09:28:00 PM 26.5333 -81.7500 50° Northeast  Level FlightAware Approximate

Login

Don't have an account? Register now (free) for customized features, flight alerts, and more!